createdAt,value
2019-02-02T00:01:42.981Z,5.59
2019-02-02T00:04:12.616Z,5.02
2019-02-02T00:06:42.412Z,5.39
2019-02-02T00:09:12.155Z,5.62
2019-02-02T00:11:41.845Z,5.50
2019-02-02T00:14:11.409Z,4.93
2019-02-02T00:16:41.247Z,5.07
2019-02-02T00:19:10.873Z,4.80
2019-02-02T00:21:40.769Z,4.88
2019-02-02T00:24:10.493Z,4.90
2019-02-02T00:26:40.392Z,5.23
2019-02-02T00:29:10.256Z,4.44
2019-02-02T00:31:39.956Z,4.93
2019-02-02T00:34:09.739Z,5.62
2019-02-02T00:36:39.268Z,5.36
2019-02-02T00:39:10.742Z,5.44
2019-02-02T00:41:40.537Z,5.43
2019-02-02T00:44:10.450Z,5.50
2019-02-02T00:46:40.004Z,5.31
2019-02-02T00:49:09.904Z,5.52
2019-02-02T00:51:39.525Z,5.44
2019-02-02T00:54:09.384Z,5.63
2019-02-02T00:56:39.102Z,4.91
2019-02-02T00:59:08.765Z,4.90
2019-02-02T01:01:38.540Z,5.49
2019-02-02T01:04:08.532Z,5.24
2019-02-02T01:06:38.336Z,5.17
2019-02-02T01:09:11.660Z,5.47
2019-02-02T01:11:41.753Z,5.43
2019-02-02T01:14:11.711Z,5.31
2019-02-02T01:16:41.501Z,5.23
2019-02-02T01:19:11.316Z,5.32
2019-02-02T01:21:40.937Z,5.44
2019-02-02T01:24:10.746Z,5.43
2019-02-02T01:26:40.317Z,5.55
2019-02-02T01:29:10.503Z,5.49
2019-02-02T01:31:40.500Z,5.49
2019-02-02T01:34:10.596Z,5.33
2019-02-02T01:36:40.140Z,5.16
2019-02-02T01:39:09.979Z,5.43
2019-02-02T01:41:39.630Z,5.41
2019-02-02T01:44:09.476Z,5.23
2019-02-02T01:46:39.110Z,5.15
2019-02-02T01:49:08.760Z,5.24
2019-02-02T01:51:38.322Z,5.19
2019-02-02T01:54:08.250Z,5.13
2019-02-02T01:56:37.742Z,5.30
2019-02-02T01:59:07.518Z,5.22
2019-02-02T02:01:37.110Z,5.67
2019-02-02T02:04:06.964Z,5.83
2019-02-02T02:06:36.634Z,5.22
2019-02-02T02:09:07.934Z,5.39
2019-02-02T02:11:37.795Z,5.14
2019-02-02T02:14:07.787Z,5.08
2019-02-02T02:16:37.518Z,5.22
2019-02-02T02:19:07.181Z,5.44
2019-02-02T02:21:36.755Z,5.51
2019-02-02T02:24:06.612Z,4.73
2019-02-02T02:26:36.274Z,4.31
2019-02-02T02:29:06.410Z,4.42
2019-02-02T02:31:36.212Z,4.60
2019-02-02T02:34:06.043Z,4.97
2019-02-02T02:36:35.776Z,4.37
2019-02-02T02:39:08.190Z,4.63
2019-02-02T02:41:37.974Z,4.34
2019-02-02T02:44:07.672Z,4.24
2019-02-02T02:46:37.358Z,5.11
2019-02-02T02:49:07.040Z,5.05
2019-02-02T02:51:36.928Z,5.38
2019-02-02T02:54:07.138Z,4.70
2019-02-02T02:56:36.723Z,4.80
2019-02-02T02:59:06.753Z,4.62
2019-02-02T03:01:36.321Z,4.64
2019-02-02T03:04:06.140Z,4.76
2019-02-02T03:06:35.678Z,4.65
2019-02-02T03:09:09.124Z,4.70
2019-02-02T03:11:39.057Z,4.90
2019-02-02T03:14:08.734Z,4.74
2019-02-02T03:16:38.222Z,4.95
2019-02-02T03:19:08.045Z,5.22
2019-02-02T03:21:37.607Z,5.28
2019-02-02T03:24:07.495Z,5.40
2019-02-02T03:26:37.054Z,5.39
2019-02-02T03:29:06.570Z,5.09
2019-02-02T03:31:36.131Z,5.75
2019-02-02T03:34:05.912Z,5.67
2019-02-02T03:36:35.819Z,5.55
2019-02-02T03:39:10.183Z,5.34
2019-02-02T03:41:39.889Z,5.55
2019-02-02T03:44:09.597Z,5.21
2019-02-02T03:46:39.304Z,6.00
2019-02-02T03:49:08.895Z,5.71
2019-02-02T03:51:38.662Z,5.31
2019-02-02T03:54:09.321Z,5.62
2019-02-02T03:56:39.044Z,4.89
2019-02-02T03:59:08.740Z,5.18
2019-02-02T04:01:38.704Z,4.46
2019-02-02T04:04:08.686Z,4.95
2019-02-02T04:06:38.277Z,5.25
2019-02-02T04:09:08.354Z,5.28
2019-02-02T04:11:37.959Z,5.09
2019-02-02T04:14:07.830Z,5.81
2019-02-02T04:16:37.623Z,5.48
2019-02-02T04:19:07.375Z,5.34
2019-02-02T04:21:37.106Z,4.85
2019-02-02T04:24:06.654Z,4.92
2019-02-02T04:26:36.880Z,4.97
2019-02-02T04:29:17.275Z,5.03
2019-02-02T04:31:38.089Z,5.27
2019-02-02T04:34:07.742Z,5.36
2019-02-02T04:36:37.687Z,5.01
2019-02-02T04:39:08.497Z,5.23
2019-02-02T04:41:38.168Z,4.98
2019-02-02T04:44:07.943Z,5.31
2019-02-02T04:46:37.543Z,5.32
2019-02-02T04:49:07.239Z,4.54
2019-02-02T04:51:36.875Z,4.97
2019-02-02T04:54:06.681Z,5.09
2019-02-02T04:56:36.217Z,5.26
2019-02-02T04:59:05.918Z,4.86
2019-02-02T05:01:35.677Z,4.92
2019-02-02T05:04:05.726Z,5.35
2019-02-02T05:06:35.282Z,4.89
2019-02-02T05:09:08.208Z,5.08
2019-02-02T05:11:37.772Z,5.23
2019-02-02T05:14:07.693Z,5.00
2019-02-02T05:16:37.288Z,4.37
2019-02-02T05:19:07.098Z,4.66
2019-02-02T05:21:36.676Z,4.63
2019-02-02T05:24:06.592Z,4.46
2019-02-02T05:26:36.277Z,4.98
2019-02-02T05:29:05.947Z,4.25
2019-02-02T05:31:35.761Z,4.78
2019-02-02T05:34:05.470Z,4.13
2019-02-02T05:36:35.193Z,5.03
2019-02-02T05:39:07.005Z,4.88
2019-02-02T05:41:36.767Z,4.49
2019-02-02T05:44:06.535Z,4.09
2019-02-02T05:46:36.196Z,4.92
2019-02-02T05:49:06.095Z,4.34
2019-02-02T05:51:35.684Z,5.04
2019-02-02T05:54:05.314Z,5.56
2019-02-02T05:56:34.936Z,4.28
2019-02-02T05:59:04.541Z,4.61
2019-02-02T06:01:34.215Z,4.75
2019-02-02T06:04:03.759Z,4.34
2019-02-02T06:06:33.724Z,4.62
2019-02-02T06:09:04.488Z,5.16
2019-02-02T06:11:34.415Z,4.10
2019-02-02T06:14:04.179Z,4.09
2019-02-02T06:16:33.841Z,4.54
2019-02-02T06:19:03.521Z,4.37
2019-02-02T06:21:33.119Z,4.32
2019-02-02T06:24:02.658Z,3.58
2019-02-02T06:26:32.659Z,4.04
2019-02-02T06:29:02.373Z,3.49
2019-02-02T06:31:32.679Z,3.92
2019-02-02T06:34:02.205Z,4.19
2019-02-02T06:36:31.740Z,4.08
2019-02-02T06:39:01.649Z,3.56
2019-02-02T06:41:31.916Z,3.51
2019-02-02T06:44:01.658Z,3.71
2019-02-02T06:46:42.969Z,4.16
2019-02-02T06:49:02.633Z,3.69
2019-02-02T06:51:32.601Z,3.63
2019-02-02T06:54:02.554Z,4.25
2019-02-02T06:56:32.085Z,3.93
2019-02-02T06:59:01.923Z,3.78
2019-02-02T07:01:32.188Z,3.74
2019-02-02T07:04:01.836Z,3.84
2019-02-02T07:06:31.730Z,4.21
2019-02-02T07:09:01.370Z,4.25
2019-02-02T07:11:31.006Z,3.96
2019-02-02T07:14:00.608Z,3.41
2019-02-02T07:16:30.364Z,2.96
2019-02-02T07:19:00.038Z,3.26
2019-02-02T07:21:29.829Z,4.03
2019-02-02T07:23:59.513Z,3.84
2019-02-02T07:26:29.188Z,3.25
2019-02-02T07:28:59.001Z,3.57
2019-02-02T07:31:28.951Z,4.36
2019-02-02T07:33:58.877Z,3.71
2019-02-02T07:36:28.543Z,3.34
2019-02-02T07:38:58.656Z,3.61
2019-02-02T07:41:28.381Z,3.69
2019-02-02T07:43:58.052Z,4.50
2019-02-02T07:46:27.787Z,3.80
2019-02-02T07:48:57.396Z,4.27
2019-02-02T07:51:27.247Z,3.59
2019-02-02T07:53:56.916Z,4.79
2019-02-02T07:56:26.659Z,3.02
2019-02-02T07:58:56.241Z,3.49
2019-02-02T08:01:26.084Z,4.07
2019-02-02T08:03:55.762Z,4.00
2019-02-02T08:06:25.500Z,3.81
2019-02-02T08:08:55.108Z,4.08
2019-02-02T08:11:24.841Z,3.86
2019-02-02T08:13:54.611Z,4.38
2019-02-02T08:16:24.773Z,4.54
2019-02-02T08:18:54.467Z,4.65
2019-02-02T08:21:24.136Z,4.33
2019-02-02T08:23:53.864Z,4.56
2019-02-02T08:26:23.654Z,4.46
2019-02-02T08:28:53.298Z,4.41
2019-02-02T08:31:23.076Z,3.56
2019-02-02T08:33:52.876Z,4.03
2019-02-02T08:36:22.621Z,3.77
2019-02-02T08:38:52.260Z,4.32
2019-02-02T08:41:21.977Z,4.06
2019-02-02T08:43:51.598Z,3.82
2019-02-02T08:46:21.371Z,4.10
2019-02-02T08:48:50.999Z,3.66
2019-02-02T08:51:20.746Z,3.70
2019-02-02T08:53:50.474Z,3.80
2019-02-02T08:56:20.181Z,3.96
2019-02-02T08:58:49.927Z,3.64
2019-02-02T09:01:19.547Z,4.10
2019-02-02T09:03:49.271Z,3.91
2019-02-02T09:06:19.134Z,3.60
2019-02-02T09:08:49.232Z,4.27
2019-02-02T09:11:18.909Z,4.15
2019-02-02T09:13:48.532Z,4.07
2019-02-02T09:16:18.367Z,4.49
2019-02-02T09:18:51.052Z,3.42
2019-02-02T09:21:19.252Z,3.48
2019-02-02T09:23:49.016Z,3.85
2019-02-02T09:26:18.565Z,4.06
2019-02-02T09:28:48.971Z,3.99
2019-02-02T09:31:18.590Z,4.27
2019-02-02T09:33:48.154Z,4.74
2019-02-02T09:36:17.774Z,4.56
2019-02-02T09:38:47.618Z,4.48
2019-02-02T09:41:17.536Z,3.57
2019-02-02T09:43:47.606Z,3.63
2019-02-02T09:46:17.164Z,3.40
2019-02-02T09:48:46.976Z,4.19
2019-02-02T09:51:16.518Z,4.24
2019-02-02T09:53:46.463Z,4.71
2019-02-02T09:56:16.000Z,4.27
2019-02-02T09:58:45.802Z,3.86
2019-02-02T10:01:27.171Z,3.72
2019-02-02T10:03:47.185Z,3.37
2019-02-02T10:06:16.850Z,4.37
2019-02-02T10:08:46.758Z,4.03
2019-02-02T10:11:16.401Z,4.28
2019-02-02T10:13:46.267Z,3.84
2019-02-02T10:16:15.766Z,3.65
2019-02-02T10:18:45.802Z,3.66
2019-02-02T10:21:15.229Z,3.90
2019-02-02T10:23:44.830Z,4.92
2019-02-02T10:26:14.575Z,4.21
2019-02-02T10:28:44.390Z,4.59
2019-02-02T10:31:13.928Z,4.09
2019-02-02T10:33:43.769Z,4.63
2019-02-02T10:36:13.307Z,4.76
2019-02-02T10:38:43.132Z,4.49
2019-02-02T10:41:12.776Z,4.47
2019-02-02T10:43:42.519Z,3.69
2019-02-02T10:46:12.319Z,3.92
2019-02-02T10:48:41.999Z,4.23
2019-02-02T10:51:11.501Z,3.96
2019-02-02T10:53:41.434Z,3.99
2019-02-02T10:56:11.038Z,4.43
2019-02-02T10:58:40.617Z,4.39
2019-02-02T11:01:10.390Z,4.76
2019-02-02T11:03:40.298Z,4.36
2019-02-02T11:06:10.061Z,3.78
2019-02-02T11:08:40.189Z,4.78
2019-02-02T11:11:10.039Z,3.78
2019-02-02T11:13:40.223Z,4.02
2019-02-02T11:16:10.370Z,3.62
2019-02-02T11:18:39.846Z,4.18
2019-02-02T11:21:09.739Z,4.87
2019-02-02T11:23:39.363Z,5.33
2019-02-02T11:26:09.225Z,4.51
2019-02-02T11:28:38.817Z,3.54
2019-02-02T11:31:12.897Z,4.09
2019-02-02T11:33:44.357Z,4.12
2019-02-02T11:36:14.020Z,3.66
2019-02-02T11:38:43.859Z,3.79
2019-02-02T11:41:13.691Z,4.62
2019-02-02T11:43:43.396Z,4.22
2019-02-02T11:46:13.170Z,4.24
2019-02-02T11:48:42.866Z,4.27
2019-02-02T11:51:12.526Z,4.13
2019-02-02T11:53:42.276Z,4.07
2019-02-02T11:56:11.760Z,4.38
2019-02-02T11:58:41.679Z,4.40
2019-02-02T12:01:11.410Z,5.16
2019-02-02T12:03:41.279Z,4.85
2019-02-02T12:06:10.939Z,4.59
2019-02-02T12:08:40.534Z,4.53
2019-02-02T12:11:10.057Z,4.63
2019-02-02T12:13:39.774Z,4.21
2019-02-02T12:16:09.453Z,4.19
2019-02-02T12:18:46.621Z,4.48
2019-02-02T12:21:16.587Z,5.09
2019-02-02T12:23:50.930Z,5.65
2019-02-02T12:26:24.763Z,5.09
2019-02-02T12:29:00.810Z,4.73
2019-02-02T12:31:36.514Z,5.87
2019-02-02T12:34:09.053Z,4.73
2019-02-02T12:36:41.353Z,4.57
2019-02-02T12:39:13.035Z,5.04
2019-02-02T12:41:45.557Z,4.91
2019-02-02T12:44:15.455Z,5.29
2019-02-02T12:46:45.160Z,4.49
2019-02-02T12:49:15.197Z,4.27
2019-02-02T12:51:45.009Z,4.66
2019-02-02T12:54:14.672Z,4.84
2019-02-02T12:56:44.575Z,4.00
2019-02-02T12:59:14.241Z,4.34
2019-02-02T13:01:43.936Z,4.18
2019-02-02T13:04:13.500Z,3.98
2019-02-02T13:06:43.255Z,4.43
2019-02-02T13:09:13.049Z,3.97
2019-02-02T13:11:42.652Z,4.63
2019-02-02T13:14:12.328Z,4.11
2019-02-02T13:16:42.045Z,3.88
2019-02-02T13:19:13.923Z,3.76
2019-02-02T13:21:42.932Z,3.90
2019-02-02T13:24:13.240Z,4.17
2019-02-02T13:26:43.096Z,3.98
2019-02-02T13:29:12.683Z,4.10
2019-02-02T13:31:42.351Z,4.72
2019-02-02T13:34:11.900Z,3.95
2019-02-02T13:36:41.995Z,3.79
2019-02-02T13:39:11.656Z,4.02
2019-02-02T13:41:41.397Z,4.51
2019-02-02T13:44:10.945Z,4.30
2019-02-02T13:46:40.615Z,4.83
2019-02-02T13:49:10.265Z,4.77
2019-02-02T13:51:40.180Z,4.15
2019-02-02T13:54:09.799Z,3.85
2019-02-02T13:56:39.487Z,3.70
2019-02-02T13:59:09.717Z,4.47
2019-02-02T14:01:42.082Z,3.95
2019-02-02T14:04:10.575Z,3.87
2019-02-02T14:06:40.545Z,4.24
2019-02-02T14:09:10.538Z,4.58
2019-02-02T14:11:40.163Z,4.05
2019-02-02T14:14:18.162Z,4.05
2019-02-02T14:16:51.233Z,4.63
2019-02-02T14:19:21.260Z,4.28
2019-02-02T14:21:51.241Z,4.14
2019-02-02T14:24:20.964Z,4.02
2019-02-02T14:26:50.843Z,4.18
2019-02-02T14:29:20.831Z,4.61
2019-02-02T14:31:50.794Z,4.46
2019-02-02T14:34:20.483Z,3.70
2019-02-02T14:36:50.399Z,3.46
2019-02-02T14:39:20.003Z,4.40
2019-02-02T14:41:49.737Z,3.79
2019-02-02T14:44:19.512Z,4.21
2019-02-02T14:46:49.230Z,3.64
2019-02-02T14:49:20.482Z,3.62
2019-02-02T14:51:50.040Z,4.12
2019-02-02T14:54:20.034Z,4.19
2019-02-02T14:56:49.878Z,3.77
2019-02-02T14:59:19.647Z,3.67
2019-02-02T15:01:49.417Z,4.11
2019-02-02T15:04:19.216Z,4.17
2019-02-02T15:06:49.045Z,4.37
2019-02-02T15:09:18.671Z,3.50
2019-02-02T15:11:48.688Z,3.32
2019-02-02T15:14:18.442Z,3.41
2019-02-02T15:16:48.133Z,3.49
2019-02-02T15:19:18.073Z,3.52
2019-02-02T15:21:47.789Z,4.12
2019-02-02T15:24:17.579Z,3.87
2019-02-02T15:26:47.402Z,3.87
2019-02-02T15:29:16.999Z,3.07
2019-02-02T15:31:46.820Z,3.82
2019-02-02T15:34:16.532Z,4.28
2019-02-02T15:36:46.282Z,4.50
2019-02-02T15:39:15.968Z,4.52
2019-02-02T15:41:52.616Z,3.68
2019-02-02T15:44:17.043Z,3.85
2019-02-02T15:46:49.007Z,4.09
2019-02-02T15:49:18.156Z,3.73
2019-02-02T15:51:48.029Z,4.26
2019-02-02T15:54:17.846Z,4.52
2019-02-02T15:56:47.557Z,4.21
2019-02-02T15:59:17.350Z,4.33
2019-02-02T16:01:47.343Z,4.43
2019-02-02T16:04:17.086Z,4.97
2019-02-02T16:06:47.089Z,4.90
2019-02-02T16:09:16.811Z,3.96
2019-02-02T16:11:46.519Z,4.03
2019-02-02T16:14:16.290Z,4.11
2019-02-02T16:16:46.061Z,3.85
2019-02-02T16:19:15.950Z,3.90
2019-02-02T16:21:45.955Z,4.22
2019-02-02T16:24:16.081Z,3.78
2019-02-02T16:26:48.592Z,4.01
2019-02-02T16:29:17.082Z,4.06
2019-02-02T16:31:46.757Z,4.53
2019-02-02T16:34:16.885Z,4.50
2019-02-02T16:36:46.516Z,4.38
2019-02-02T16:39:16.217Z,4.08
2019-02-02T16:41:45.898Z,4.26
2019-02-02T16:44:15.916Z,4.57
2019-02-02T16:46:45.539Z,4.13
2019-02-02T16:49:15.369Z,3.83
2019-02-02T16:51:45.248Z,3.92
2019-02-02T16:54:15.182Z,3.92
2019-02-02T16:56:45.034Z,4.11
2019-02-02T16:59:15.329Z,3.93
2019-02-02T17:01:45.114Z,3.73
2019-02-02T17:04:16.268Z,4.33
2019-02-02T17:06:46.093Z,4.94
2019-02-02T17:09:16.440Z,3.65
2019-02-02T17:11:46.432Z,4.00
2019-02-02T17:14:18.063Z,3.54
2019-02-02T17:16:47.706Z,4.26
2019-02-02T17:19:17.585Z,4.13
2019-02-02T17:21:47.245Z,4.24
2019-02-02T17:24:16.909Z,4.00
2019-02-02T17:26:46.597Z,4.05
2019-02-02T17:29:16.379Z,3.46
2019-02-02T17:31:46.320Z,4.48
2019-02-02T17:34:26.603Z,3.90
2019-02-02T17:36:47.457Z,4.70
2019-02-02T17:39:17.170Z,3.98
2019-02-02T17:41:46.840Z,4.60
2019-02-02T17:44:16.617Z,4.70
2019-02-02T17:46:46.429Z,4.64
2019-02-02T17:49:16.445Z,3.49
2019-02-02T17:51:46.158Z,4.56
2019-02-02T17:54:15.969Z,4.54
2019-02-02T17:56:45.657Z,4.37
2019-02-02T17:59:15.425Z,3.85
2019-02-02T18:01:45.375Z,4.72
2019-02-02T18:04:15.095Z,4.52
2019-02-02T18:06:44.870Z,5.01
2019-02-02T18:09:14.689Z,3.69
2019-02-02T18:11:44.345Z,4.25
2019-02-02T18:14:14.368Z,3.78
2019-02-02T18:16:44.230Z,3.75
2019-02-02T18:19:13.873Z,4.64
2019-02-02T18:21:43.637Z,3.93
2019-02-02T18:24:13.386Z,4.01
2019-02-02T18:26:43.155Z,4.26
2019-02-02T18:29:12.880Z,4.29
2019-02-02T18:31:42.766Z,4.32
2019-02-02T18:34:12.609Z,4.25
2019-02-02T18:36:42.138Z,4.06
2019-02-02T18:39:11.732Z,4.07
2019-02-02T18:41:41.597Z,4.66
2019-02-02T18:44:11.162Z,4.28
2019-02-02T18:46:41.329Z,3.61
2019-02-02T18:49:10.842Z,4.25
2019-02-02T18:51:40.482Z,4.69
2019-02-02T18:54:10.234Z,4.25
2019-02-02T18:56:40.099Z,4.41
2019-02-02T18:59:11.242Z,4.11
2019-02-02T19:01:40.971Z,4.02
2019-02-02T19:04:30.096Z,4.33
2019-02-02T19:06:59.809Z,4.54
2019-02-02T19:09:29.480Z,4.24
2019-02-02T19:11:59.022Z,4.14
2019-02-02T19:14:29.092Z,3.81
2019-02-02T19:17:01.016Z,3.72
2019-02-02T19:19:30.198Z,3.59
2019-02-02T19:21:59.998Z,3.79
2019-02-02T19:24:29.558Z,4.32
2019-02-02T19:26:59.447Z,4.00
2019-02-02T19:29:29.859Z,4.58
2019-02-02T19:31:59.439Z,4.46
2019-02-02T19:34:29.128Z,3.94
2019-02-02T19:36:58.800Z,4.43
2019-02-02T19:39:28.910Z,4.28
2019-02-02T19:41:58.756Z,4.23
2019-02-02T19:44:28.535Z,3.67
2019-02-02T19:46:58.237Z,4.36
2019-02-02T19:49:28.409Z,4.80
2019-02-02T19:51:58.110Z,4.88
2019-02-02T19:54:28.361Z,4.14
2019-02-02T19:56:58.190Z,3.51
2019-02-02T19:59:28.101Z,4.72
2019-02-02T20:01:57.955Z,4.63
2019-02-02T20:04:28.038Z,4.57
2019-02-02T20:06:57.845Z,3.90
2019-02-02T20:09:27.561Z,3.88
2019-02-02T20:11:57.278Z,4.89
2019-02-02T20:14:26.833Z,4.36
2019-02-02T20:16:56.563Z,3.72
2019-02-02T20:19:26.117Z,4.34
2019-02-02T20:21:55.963Z,4.31
2019-02-02T20:24:25.635Z,4.66
2019-02-02T20:26:55.913Z,4.71
2019-02-02T20:29:25.847Z,5.67
2019-02-02T20:31:55.764Z,4.26
2019-02-02T20:34:25.433Z,4.80
2019-02-02T20:36:55.318Z,4.25
2019-02-02T20:39:25.046Z,5.29
2019-02-02T20:41:54.746Z,4.93
2019-02-02T20:44:24.336Z,4.31
2019-02-02T20:46:54.048Z,4.69
2019-02-02T20:49:23.662Z,4.57
2019-02-02T20:51:53.412Z,3.93
2019-02-02T20:54:23.046Z,4.20
2019-02-02T20:56:52.862Z,3.94
2019-02-02T20:59:22.520Z,4.17
2019-02-02T21:01:52.310Z,4.02
2019-02-02T21:04:22.024Z,3.48
2019-02-02T21:06:51.771Z,3.85
2019-02-02T21:09:27.176Z,4.51
2019-02-02T21:11:57.376Z,4.17
2019-02-02T21:14:27.226Z,3.87
2019-02-02T21:16:56.844Z,3.84
2019-02-02T21:19:27.041Z,3.86
2019-02-02T21:21:56.871Z,3.80
2019-02-02T21:24:27.235Z,4.11
2019-02-02T21:26:57.262Z,4.18
2019-02-02T21:29:26.862Z,4.05
2019-02-02T21:31:57.011Z,4.02
2019-02-02T21:34:26.887Z,4.73
2019-02-02T21:36:57.221Z,4.23
2019-02-02T21:39:26.822Z,5.09
2019-02-02T21:41:56.417Z,4.03
2019-02-02T21:44:26.561Z,5.11
2019-02-02T21:46:56.207Z,4.11
2019-02-02T21:49:26.026Z,4.26
2019-02-02T21:51:55.744Z,4.40
2019-02-02T21:54:25.970Z,4.56
2019-02-02T21:56:56.006Z,4.65
2019-02-02T21:59:25.587Z,4.19
2019-02-02T22:01:55.470Z,4.49
2019-02-02T22:04:25.178Z,4.93
2019-02-02T22:06:54.785Z,4.48
2019-02-02T22:09:24.648Z,4.30
2019-02-02T22:11:54.181Z,4.72
2019-02-02T22:14:24.283Z,3.86
2019-02-02T22:16:54.021Z,3.93
2019-02-02T22:19:23.723Z,4.74
2019-02-02T22:21:53.246Z,4.04
2019-02-02T22:24:23.083Z,4.41
2019-02-02T22:26:52.765Z,4.63
2019-02-02T22:29:22.431Z,3.94
2019-02-02T22:31:52.089Z,4.06
2019-02-02T22:34:21.697Z,4.55
2019-02-02T22:36:51.642Z,3.84
2019-02-02T22:39:21.567Z,4.32
2019-02-02T22:41:51.378Z,4.48
2019-02-02T22:44:21.123Z,4.29
2019-02-02T22:46:50.822Z,4.70
2019-02-02T22:49:20.811Z,4.42
2019-02-02T22:51:50.605Z,4.47
2019-02-02T22:54:20.398Z,4.95
2019-02-02T22:56:50.021Z,4.02
2019-02-02T22:59:19.675Z,3.44
2019-02-02T23:01:50.141Z,3.84
2019-02-02T23:04:24.601Z,4.57
2019-02-02T23:06:58.847Z,4.73
2019-02-02T23:09:56.658Z,3.68
2019-02-02T23:12:33.901Z,4.15
2019-02-02T23:15:17.059Z,3.96
2019-02-02T23:17:47.152Z,4.32
2019-02-02T23:20:16.880Z,3.92
2019-02-02T23:22:47.159Z,4.37
2019-02-02T23:25:16.780Z,4.64
2019-02-02T23:27:46.736Z,4.40
2019-02-02T23:30:17.825Z,4.38
2019-02-02T23:32:47.527Z,4.66
2019-02-02T23:35:17.534Z,4.15
2019-02-02T23:37:47.664Z,3.68
2019-02-02T23:40:17.266Z,4.19
2019-02-02T23:42:47.700Z,3.86
2019-02-02T23:45:17.463Z,4.04
2019-02-02T23:47:47.318Z,4.45
2019-02-02T23:50:16.790Z,4.24
2019-02-02T23:52:46.586Z,4.75
2019-02-02T23:55:16.335Z,4.14
2019-02-02T23:57:46.363Z,4.22
